sensor_id;sensor_type;location;lat;lon;timestamp;pressure;altitude;pressure_sealevel;temperature;humidity
58658;BME280;44428;45.630;13.786;2023-03-14T00:03:35;100949.16;;;12.30;68.83
58658;BME280;44428;45.630;13.786;2023-03-14T00:06:03;100949.75;;;12.34;69.18
58658;BME280;44428;45.630;13.786;2023-03-14T00:08:30;100940.03;;;12.34;69.29
58658;BME280;44428;45.630;13.786;2023-03-14T00:10:56;100950.84;;;12.31;69.59
58658;BME280;44428;45.630;13.786;2023-03-14T00:13:24;100952.53;;;12.32;69.77
58658;BME280;44428;45.630;13.786;2023-03-14T00:15:50;100938.31;;;12.33;70.15
58658;BME280;44428;45.630;13.786;2023-03-14T00:18:16;100941.09;;;12.32;70.13
58658;BME280;44428;45.630;13.786;2023-03-14T00:20:43;100934.94;;;12.31;70.26
58658;BME280;44428;45.630;13.786;2023-03-14T00:23:09;100933.25;;;12.30;70.83
58658;BME280;44428;45.630;13.786;2023-03-14T00:25:37;100929.63;;;12.31;70.98
58658;BME280;44428;45.630;13.786;2023-03-14T00:28:03;100939.41;;;12.31;70.76
58658;BME280;44428;45.630;13.786;2023-03-14T00:30:29;100926.28;;;12.29;70.91
58658;BME280;44428;45.630;13.786;2023-03-14T00:32:56;100917.13;;;12.33;71.24
58658;BME280;44428;45.630;13.786;2023-03-14T00:35:22;100913.53;;;12.34;71.39
58658;BME280;44428;45.630;13.786;2023-03-14T00:37:48;100904.63;;;12.35;71.59
58658;BME280;44428;45.630;13.786;2023-03-14T00:40:16;100899.09;;;12.38;72.15
58658;BME280;44428;45.630;13.786;2023-03-14T00:42:42;100892.13;;;12.37;72.48
58658;BME280;44428;45.630;13.786;2023-03-14T00:45:09;100903.56;;;12.38;72.60
58658;BME280;44428;45.630;13.786;2023-03-14T00:47:37;100894.63;;;12.39;72.57
58658;BME280;44428;45.630;13.786;2023-03-14T00:50:03;100893.56;;;12.42;72.67
58658;BME280;44428;45.630;13.786;2023-03-14T00:52:30;100876.22;;;12.37;72.72
58658;BME280;44428;45.630;13.786;2023-03-14T00:54:56;100874.28;;;12.40;73.13
58658;BME280;44428;45.630;13.786;2023-03-14T00:57:22;100863.66;;;12.40;73.72
58658;BME280;44428;45.630;13.786;2023-03-14T00:59:50;100847.53;;;12.43;74.27
58658;BME280;44428;45.630;13.786;2023-03-14T01:02:16;100842.00;;;12.46;74.12
58658;BME280;44428;45.630;13.786;2023-03-14T01:04:43;100836.72;;;12.46;74.25
58658;BME280;44428;45.630;13.786;2023-03-14T01:07:09;100832.25;;;12.46;74.19
58658;BME280;44428;45.630;13.786;2023-03-14T01:09:35;100830.34;;;12.48;74.42
58658;BME280;44428;45.630;13.786;2023-03-14T01:12:01;100815.28;;;12.49;74.81
58658;BME280;44428;45.630;13.786;2023-03-14T01:14:28;100819.88;;;12.47;75.26
58658;BME280;44428;45.630;13.786;2023-03-14T01:16:54;100814.56;;;12.58;77.73
58658;BME280;44428;45.630;13.786;2023-03-14T01:19:28;100809.25;;;12.58;78.37
58658;BME280;44428;45.630;13.786;2023-03-14T01:21:56;100808.56;;;12.67;79.42
58658;BME280;44428;45.630;13.786;2023-03-14T01:24:22;100799.66;;;12.68;80.12
58658;BME280;44428;45.630;13.786;2023-03-14T01:26:48;100801.56;;;12.66;80.24
58658;BME280;44428;45.630;13.786;2023-03-14T01:29:15;100805.78;;;12.69;81.45
58658;BME280;44428;45.630;13.786;2023-03-14T01:31:41;100793.41;;;12.80;81.19
58658;BME280;44428;45.630;13.786;2023-03-14T01:34:07;100792.66;;;12.90;81.13
58658;BME280;44428;45.630;13.786;2023-03-14T01:36:35;100787.59;;;12.87;81.14
58658;BME280;44428;45.630;13.786;2023-03-14T01:39:01;100779.16;;;12.81;81.59
58658;BME280;44428;45.630;13.786;2023-03-14T01:41:28;100777.72;;;12.77;81.90
58658;BME280;44428;45.630;13.786;2023-03-14T01:43:57;100775.06;;;12.77;82.15
58658;BME280;44428;45.630;13.786;2023-03-14T01:46:38;100757.94;;;12.81;81.91
58658;BME280;44428;45.630;13.786;2023-03-14T01:49:30;100759.38;;;12.86;82.23
58658;BME280;44428;45.630;13.786;2023-03-14T01:52:37;100753.25;;;12.85;82.46
58658;BME280;44428;45.630;13.786;2023-03-14T01:55:20;100749.00;;;12.94;82.43
58658;BME280;44428;45.630;13.786;2023-03-14T01:57:50;100746.97;;;12.97;81.96
58658;BME280;44428;45.630;13.786;2023-03-14T02:00:23;100738.53;;;12.92;82.64
58658;BME280;44428;45.630;13.786;2023-03-14T02:02:57;100734.09;;;12.93;83.04
58658;BME280;44428;45.630;13.786;2023-03-14T02:05:32;100725.41;;;12.91;83.21
58658;BME280;44428;45.630;13.786;2023-03-14T02:08:17;100716.72;;;12.89;83.79
58658;BME280;44428;45.630;13.786;2023-03-14T02:10:49;100706.72;;;12.92;84.00
58658;BME280;44428;45.630;13.786;2023-03-14T02:13:21;100688.03;;;12.94;84.00
58658;BME280;44428;45.630;13.786;2023-03-14T02:16:14;100691.16;;;12.99;83.95
58658;BME280;44428;45.630;13.786;2023-03-14T02:19:04;100685.84;;;12.99;83.78
58658;BME280;44428;45.630;13.786;2023-03-14T02:22:09;100675.56;;;13.05;83.75
58658;BME280;44428;45.630;13.786;2023-03-14T02:27:48;100677.88;;;13.10;84.10
58658;BME280;44428;45.630;13.786;2023-03-14T02:30:20;100665.31;;;13.12;83.68
58658;BME280;44428;45.630;13.786;2023-03-14T02:32:51;100666.28;;;13.11;84.08
58658;BME280;44428;45.630;13.786;2023-03-14T02:35:21;100661.22;;;13.08;84.11
58658;BME280;44428;45.630;13.786;2023-03-14T02:37:59;100649.63;;;13.09;84.59
58658;BME280;44428;45.630;13.786;2023-03-14T02:40:33;100629.88;;;13.13;84.29
58658;BME280;44428;45.630;13.786;2023-03-14T02:42:59;100636.84;;;13.14;84.26
58658;BME280;44428;45.630;13.786;2023-03-14T02:45:37;100637.44;;;13.18;84.06
58658;BME280;44428;45.630;13.786;2023-03-14T02:48:09;100620.78;;;13.27;83.78
58658;BME280;44428;45.630;13.786;2023-03-14T02:50:38;100618.28;;;13.25;83.51
58658;BME280;44428;45.630;13.786;2023-03-14T02:53:05;100619.00;;;13.16;84.47
58658;BME280;44428;45.630;13.786;2023-03-14T02:55:32;100620.94;;;13.14;84.35
58658;BME280;44428;45.630;13.786;2023-03-14T02:58:05;100639.03;;;13.09;84.64
58658;BME280;44428;45.630;13.786;2023-03-14T03:00:31;100630.72;;;13.14;84.88
58658;BME280;44428;45.630;13.786;2023-03-14T03:02:59;100630.34;;;13.07;85.15
58658;BME280;44428;45.630;13.786;2023-03-14T03:05:25;100642.91;;;13.05;85.43
58658;BME280;44428;45.630;13.786;2023-03-14T03:07:51;100650.13;;;13.03;85.92
58658;BME280;44428;45.630;13.786;2023-03-14T03:10:18;100662.41;;;13.04;85.50
58658;BME280;44428;45.630;13.786;2023-03-14T03:12:44;100656.53;;;13.00;85.75
58658;BME280;44428;45.630;13.786;2023-03-14T03:15:11;100665.31;;;13.01;85.67
58658;BME280;44428;45.630;13.786;2023-03-14T03:17:37;100657.38;;;13.01;85.70
58658;BME280;44428;45.630;13.786;2023-03-14T03:20:05;100649.22;;;12.93;86.18
58658;BME280;44428;45.630;13.786;2023-03-14T03:22:36;100657.03;;;12.94;86.08
58658;BME280;44428;45.630;13.786;2023-03-14T03:25:03;100657.88;;;12.95;85.84
58658;BME280;44428;45.630;13.786;2023-03-14T03:27:33;100656.44;;;12.91;86.44
58658;BME280;44428;45.630;13.786;2023-03-14T03:30:03;100658.63;;;12.86;86.65
58658;BME280;44428;45.630;13.786;2023-03-14T03:32:32;100650.16;;;12.92;85.86
58658;BME280;44428;45.630;13.786;2023-03-14T03:34:58;100649.47;;;12.90;85.82
58658;BME280;44428;45.630;13.786;2023-03-14T03:37:25;100651.88;;;12.81;86.36
58658;BME280;44428;45.630;13.786;2023-03-14T03:39:51;100656.59;;;12.89;86.20
58658;BME280;44428;45.630;13.786;2023-03-14T03:42:18;100663.91;;;12.86;86.20
58658;BME280;44428;45.630;13.786;2023-03-14T03:44:45;100670.69;;;12.90;85.73
58658;BME280;44428;45.630;13.786;2023-03-14T03:47:12;100665.13;;;12.93;85.65
58658;BME280;44428;45.630;13.786;2023-03-14T03:49:38;100670.44;;;12.93;85.63
58658;BME280;44428;45.630;13.786;2023-03-14T03:52:04;100651.38;;;12.88;85.70
58658;BME280;44428;45.630;13.786;2023-03-14T03:54:32;100661.50;;;12.94;85.65
58658;BME280;44428;45.630;13.786;2023-03-14T03:56:59;100655.34;;;12.93;85.59
58658;BME280;44428;45.630;13.786;2023-03-14T03:59:27;100646.81;;;12.90;85.57
58658;BME280;44428;45.630;13.786;2023-03-14T04:01:53;100648.47;;;12.91;85.46
58658;BME280;44428;45.630;13.786;2023-03-14T04:04:19;100638.72;;;12.91;85.87
58658;BME280;44428;45.630;13.786;2023-03-14T04:06:45;100628.00;;;12.93;85.88
58658;BME280;44428;45.630;13.786;2023-03-14T04:09:12;100642.44;;;12.89;86.24
58658;BME280;44428;45.630;13.786;2023-03-14T04:11:45;100635.47;;;12.88;86.65
58658;BME280;44428;45.630;13.786;2023-03-14T04:14:32;100636.22;;;12.78;86.90
58658;BME280;44428;45.630;13.786;2023-03-14T04:17:09;100638.50;;;12.83;86.67
58658;BME280;44428;45.630;13.786;2023-03-14T04:19:36;100630.91;;;12.90;86.26
58658;BME280;44428;45.630;13.786;2023-03-14T04:22:03;100628.00;;;12.93;85.93
58658;BME280;44428;45.630;13.786;2023-03-14T04:24:38;100628.25;;;12.90;85.83
58658;BME280;44428;45.630;13.786;2023-03-14T04:27:04;100620.53;;;12.87;85.87
58658;BME280;44428;45.630;13.786;2023-03-14T04:29:32;100610.88;;;12.86;85.78
58658;BME280;44428;45.630;13.786;2023-03-14T04:31:58;100616.69;;;12.79;85.94
58658;BME280;44428;45.630;13.786;2023-03-14T04:34:25;100598.84;;;12.81;85.56
58658;BME280;44428;45.630;13.786;2023-03-14T04:36:55;100591.63;;;12.83;85.51
58658;BME280;44428;45.630;13.786;2023-03-14T04:39:34;100593.78;;;12.78;85.38
58658;BME280;44428;45.630;13.786;2023-03-14T04:42:26;100595.28;;;12.71;85.67
58658;BME280;44428;45.630;13.786;2023-03-14T04:44:53;100590.91;;;12.70;85.36
58658;BME280;44428;45.630;13.786;2023-03-14T04:47:23;100592.16;;;12.66;85.11
58658;BME280;44428;45.630;13.786;2023-03-14T04:49:50;100594.78;;;12.66;85.32
58658;BME280;44428;45.630;13.786;2023-03-14T04:52:19;100587.06;;;12.74;84.67
58658;BME280;44428;45.630;13.786;2023-03-14T04:54:46;100591.16;;;12.78;84.69
58658;BME280;44428;45.630;13.786;2023-03-14T04:57:12;100581.25;;;12.80;84.49
58658;BME280;44428;45.630;13.786;2023-03-14T04:59:39;100569.56;;;12.83;84.56
58658;BME280;44428;45.630;13.786;2023-03-14T05:02:27;100555.00;;;12.77;84.77
58658;BME280;44428;45.630;13.786;2023-03-14T05:05:14;100558.34;;;12.79;84.70
58658;BME280;44428;45.630;13.786;2023-03-14T05:07:58;100544.66;;;12.74;85.13
58658;BME280;44428;45.630;13.786;2023-03-14T05:10:57;100525.84;;;12.77;85.13
58658;BME280;44428;45.630;13.786;2023-03-14T05:13:33;100521.47;;;12.76;85.45
58658;BME280;44428;45.630;13.786;2023-03-14T05:16:18;100518.78;;;12.88;84.46
58658;BME280;44428;45.630;13.786;2023-03-14T05:19:03;100503.41;;;12.81;84.74
58658;BME280;44428;45.630;13.786;2023-03-14T05:21:55;100498.81;;;12.83;84.52
58658;BME280;44428;45.630;13.786;2023-03-14T05:24:48;100501.72;;;12.80;84.66
58658;BME280;44428;45.630;13.786;2023-03-14T05:27:44;100502.06;;;12.87;84.33
58658;BME280;44428;45.630;13.786;2023-03-14T05:30:19;100513.50;;;12.88;84.29
58658;BME280;44428;45.630;13.786;2023-03-14T05:33:02;100514.06;;;12.91;84.19
58658;BME280;44428;45.630;13.786;2023-03-14T05:35:37;100523.34;;;12.97;84.00
58658;BME280;44428;45.630;13.786;2023-03-14T05:38:22;100523.34;;;12.97;84.01
58658;BME280;44428;45.630;13.786;2023-03-14T05:41:16;100513.31;;;13.00;84.15
58658;BME280;44428;45.630;13.786;2023-03-14T05:44:00;100501.34;;;13.06;83.63
58658;BME280;44428;45.630;13.786;2023-03-14T05:46:49;100489.56;;;12.99;84.50
58658;BME280;44428;45.630;13.786;2023-03-14T05:49:35;100476.13;;;12.91;84.90
58658;BME280;44428;45.630;13.786;2023-03-14T05:52:34;100467.69;;;12.86;84.69
58658;BME280;44428;45.630;13.786;2023-03-14T05:55:30;100450.69;;;12.88;84.12
58658;BME280;44428;45.630;13.786;2023-03-14T05:58:17;100437.56;;;12.87;84.43
58658;BME280;44428;45.630;13.786;2023-03-14T06:01:03;100417.19;;;12.87;83.39
58658;BME280;44428;45.630;13.786;2023-03-14T06:03:46;100411.31;;;12.83;84.00
58658;BME280;44428;45.630;13.786;2023-03-14T06:06:13;100417.13;;;12.77;84.32
58658;BME280;44428;45.630;13.786;2023-03-14T06:08:39;100411.84;;;12.77;84.32
58658;BME280;44428;45.630;13.786;2023-03-14T06:11:06;100392.03;;;12.81;83.79
58658;BME280;44428;45.630;13.786;2023-03-14T06:13:33;100397.91;;;12.85;83.80
58658;BME280;44428;45.630;13.786;2023-03-14T06:15:59;100402.38;;;12.84;83.51
58658;BME280;44428;45.630;13.786;2023-03-14T06:18:29;100407.41;;;12.88;83.05
58658;BME280;44428;45.630;13.786;2023-03-14T06:20:57;100403.22;;;12.85;83.24
58658;BME280;44428;45.630;13.786;2023-03-14T06:23:50;100400.19;;;12.90;82.06
58658;BME280;44428;45.630;13.786;2023-03-14T06:26:17;100413.88;;;12.95;81.36
58658;BME280;44428;45.630;13.786;2023-03-14T06:28:44;100405.66;;;12.98;80.02
58658;BME280;44428;45.630;13.786;2023-03-14T06:31:10;100420.88;;;12.96;80.06
58658;BME280;44428;45.630;13.786;2023-03-14T06:33:49;100417.56;;;13.03;79.36
58658;BME280;44428;45.630;13.786;2023-03-14T06:36:15;100426.63;;;13.01;79.45
58658;BME280;44428;45.630;13.786;2023-03-14T06:38:44;100429.25;;;13.01;80.07
58658;BME280;44428;45.630;13.786;2023-03-14T06:41:10;100431.59;;;13.15;79.70
58658;BME280;44428;45.630;13.786;2023-03-14T06:43:39;100434.06;;;13.07;81.25
58658;BME280;44428;45.630;13.786;2023-03-14T06:46:07;100419.84;;;13.08;82.38
58658;BME280;44428;45.630;13.786;2023-03-14T06:48:35;100404.72;;;12.99;84.80
58658;BME280;44428;45.630;13.786;2023-03-14T06:51:02;100394.63;;;12.93;85.50
58658;BME280;44428;45.630;13.786;2023-03-14T06:53:28;100394.38;;;12.96;84.90
58658;BME280;44428;45.630;13.786;2023-03-14T06:55:56;100383.50;;;12.99;85.96
58658;BME280;44428;45.630;13.786;2023-03-14T06:58:25;100385.69;;;12.94;85.81
58658;BME280;44428;45.630;13.786;2023-03-14T07:00:52;100367.06;;;13.05;84.76
58658;BME280;44428;45.630;13.786;2023-03-14T07:03:23;100364.84;;;13.10;84.50
58658;BME280;44428;45.630;13.786;2023-03-14T07:05:53;100361.47;;;13.08;84.06
58658;BME280;44428;45.630;13.786;2023-03-14T07:08:19;100363.16;;;13.09;84.25
58658;BME280;44428;45.630;13.786;2023-03-14T07:10:46;100370.38;;;13.07;83.51
58658;BME280;44428;45.630;13.786;2023-03-14T07:13:13;100361.75;;;13.05;83.28
58658;BME280;44428;45.630;13.786;2023-03-14T07:15:50;100347.50;;;13.06;81.62
58658;BME280;44428;45.630;13.786;2023-03-14T07:18:16;100351.13;;;13.05;81.23
58658;BME280;44428;45.630;13.786;2023-03-14T07:20:45;100342.72;;;13.00;81.06
58658;BME280;44428;45.630;13.786;2023-03-14T07:23:13;100343.88;;;13.07;81.06
58658;BME280;44428;45.630;13.786;2023-03-14T07:25:45;100353.97;;;13.13;80.18
58658;BME280;44428;45.630;13.786;2023-03-14T07:28:13;100337.78;;;13.16;80.33
58658;BME280;44428;45.630;13.786;2023-03-14T07:30:41;100333.88;;;13.20;78.45
58658;BME280;44428;45.630;13.786;2023-03-14T07:33:16;100331.72;;;13.25;78.65
58658;BME280;44428;45.630;13.786;2023-03-14T07:35:43;100344.22;;;13.23;77.77
58658;BME280;44428;45.630;13.786;2023-03-14T07:38:09;100354.34;;;13.29;76.39
58658;BME280;44428;45.630;13.786;2023-03-14T07:40:43;100317.47;;;13.26;76.75
58658;BME280;44428;45.630;13.786;2023-03-14T07:43:10;100334.78;;;13.31;76.56
58658;BME280;44428;45.630;13.786;2023-03-14T07:46:00;100341.53;;;13.35;76.62
58658;BME280;44428;45.630;13.786;2023-03-14T07:48:27;100322.50;;;13.29;77.73
58658;BME280;44428;45.630;13.786;2023-03-14T07:50:54;100319.31;;;13.36;76.50
58658;BME280;44428;45.630;13.786;2023-03-14T07:53:21;100300.47;;;13.39;76.17
58658;BME280;44428;45.630;13.786;2023-03-14T07:55:47;100310.53;;;13.45;75.75
58658;BME280;44428;45.630;13.786;2023-03-14T07:58:14;100296.53;;;13.43;75.25
58658;BME280;44428;45.630;13.786;2023-03-14T08:00:40;100307.03;;;13.35;74.78
58658;BME280;44428;45.630;13.786;2023-03-14T08:03:07;100295.69;;;13.33;74.55
58658;BME280;44428;45.630;13.786;2023-03-14T08:05:37;100302.66;;;13.34;74.61
58658;BME280;44428;45.630;13.786;2023-03-14T08:08:04;100282.00;;;13.37;74.42
58658;BME280;44428;45.630;13.786;2023-03-14T08:10:31;100287.63;;;13.44;74.31
58658;BME280;44428;45.630;13.786;2023-03-14T08:12:59;100274.75;;;13.49;74.14
58658;BME280;44428;45.630;13.786;2023-03-14T08:15:28;100277.00;;;13.44;73.87
58658;BME280;44428;45.630;13.786;2023-03-14T08:17:55;100259.38;;;13.43;71.96
58658;BME280;44428;45.630;13.786;2023-03-14T08:20:24;100269.72;;;13.46;71.48
58658;BME280;44428;45.630;13.786;2023-03-14T08:22:51;100294.59;;;13.45;70.95
58658;BME280;44428;45.630;13.786;2023-03-14T08:25:18;100289.59;;;13.51;68.93
58658;BME280;44428;45.630;13.786;2023-03-14T08:27:45;100282.72;;;13.49;69.11
58658;BME280;44428;45.630;13.786;2023-03-14T08:30:14;100289.31;;;13.45;69.71
58658;BME280;44428;45.630;13.786;2023-03-14T08:32:41;100293.22;;;13.41;68.67
58658;BME280;44428;45.630;13.786;2023-03-14T08:35:07;100285.09;;;13.42;68.24
58658;BME280;44428;45.630;13.786;2023-03-14T08:37:35;100275.59;;;13.40;67.88
58658;BME280;44428;45.630;13.786;2023-03-14T08:40:03;100280.91;;;13.40;68.32
58658;BME280;44428;45.630;13.786;2023-03-14T08:42:33;100255.78;;;13.44;67.38
58658;BME280;44428;45.630;13.786;2023-03-14T08:45:00;100258.00;;;13.39;67.02
58658;BME280;44428;45.630;13.786;2023-03-14T08:47:26;100267.22;;;13.35;67.27
58658;BME280;44428;45.630;13.786;2023-03-14T08:49:53;100254.34;;;13.40;67.80
58658;BME280;44428;45.630;13.786;2023-03-14T08:52:20;100264.44;;;13.46;66.85
58658;BME280;44428;45.630;13.786;2023-03-14T08:54:46;100263.31;;;13.39;66.59
58658;BME280;44428;45.630;13.786;2023-03-14T08:57:13;100265.78;;;13.31;67.06
58658;BME280;44428;45.630;13.786;2023-03-14T08:59:39;100263.56;;;13.36;67.29
58658;BME280;44428;45.630;13.786;2023-03-14T09:02:08;100280.03;;;13.29;66.55
58658;BME280;44428;45.630;13.786;2023-03-14T09:04:34;100296.25;;;13.26;66.44
58658;BME280;44428;45.630;13.786;2023-03-14T09:07:00;100301.78;;;13.23;66.73
58658;BME280;44428;45.630;13.786;2023-03-14T09:09:27;100305.41;;;13.22;66.65
58658;BME280;44428;45.630;13.786;2023-03-14T09:11:54;100306.84;;;13.26;66.40
58658;BME280;44428;45.630;13.786;2023-03-14T09:14:20;100316.03;;;13.22;67.21
58658;BME280;44428;45.630;13.786;2023-03-14T09:16:47;100323.00;;;13.23;67.11
58658;BME280;44428;45.630;13.786;2023-03-14T09:19:13;100326.66;;;13.22;69.44
58658;BME280;44428;45.630;13.786;2023-03-14T09:21:39;100328.41;;;13.12;70.30
58658;BME280;44428;45.630;13.786;2023-03-14T09:24:06;100324.63;;;13.05;72.43
58658;BME280;44428;45.630;13.786;2023-03-14T09:26:32;100319.31;;;13.05;71.53
58658;BME280;44428;45.630;13.786;2023-03-14T09:28:59;100309.50;;;12.96;74.14
58658;BME280;44428;45.630;13.786;2023-03-14T09:31:25;100312.41;;;12.93;73.76
58658;BME280;44428;45.630;13.786;2023-03-14T09:33:51;100323.13;;;12.91;74.02
58658;BME280;44428;45.630;13.786;2023-03-14T09:36:18;100315.44;;;12.88;74.69
58658;BME280;44428;45.630;13.786;2023-03-14T09:38:44;100293.94;;;12.81;73.80
58658;BME280;44428;45.630;13.786;2023-03-14T09:41:14;100293.94;;;12.81;74.31
58658;BME280;44428;45.630;13.786;2023-03-14T09:43:42;100298.22;;;12.73;74.79
58658;BME280;44428;45.630;13.786;2023-03-14T09:46:12;100295.19;;;12.77;74.35
58658;BME280;44428;45.630;13.786;2023-03-14T09:48:39;100294.84;;;12.71;75.67
58658;BME280;44428;45.630;13.786;2023-03-14T09:51:20;100297.56;;;12.80;75.68
58658;BME280;44428;45.630;13.786;2023-03-14T09:53:50;100300.22;;;12.80;76.46
58658;BME280;44428;45.630;13.786;2023-03-14T09:56:25;100295.06;;;12.89;75.04
58658;BME280;44428;45.630;13.786;2023-03-14T09:58:59;100292.16;;;12.92;74.76
58658;BME280;44428;45.630;13.786;2023-03-14T10:01:31;100286.31;;;12.98;74.87
58658;BME280;44428;45.630;13.786;2023-03-14T10:04:01;100276.16;;;13.03;74.05
58658;BME280;44428;45.630;13.786;2023-03-14T10:06:30;100270.13;;;13.01;74.12
58658;BME280;44428;45.630;13.786;2023-03-14T10:08:57;100264.00;;;13.00;74.14
58658;BME280;44428;45.630;13.786;2023-03-14T10:11:24;100249.63;;;13.03;74.42
58658;BME280;44428;45.630;13.786;2023-03-14T10:14:11;100242.56;;;13.13;75.02
58658;BME280;44428;45.630;13.786;2023-03-14T10:16:46;100244.94;;;13.16;74.08
58658;BME280;44428;45.630;13.786;2023-03-14T10:19:15;100247.59;;;13.16;73.74
58658;BME280;44428;45.630;13.786;2023-03-14T10:21:53;100252.63;;;13.19;74.10
58658;BME280;44428;45.630;13.786;2023-03-14T10:24:46;100259.59;;;13.20;73.02
58658;BME280;44428;45.630;13.786;2023-03-14T10:27:21;100237.25;;;13.13;73.70
58658;BME280;44428;45.630;13.786;2023-03-14T10:29:57;100255.38;;;13.08;74.39
58658;BME280;44428;45.630;13.786;2023-03-14T10:32:32;100273.94;;;13.08;74.80
58658;BME280;44428;45.630;13.786;2023-03-14T10:35:23;100257.31;;;13.06;74.12
58658;BME280;44428;45.630;13.786;2023-03-14T10:37:53;100264.06;;;13.10;75.23
58658;BME280;44428;45.630;13.786;2023-03-14T10:40:25;100292.25;;;13.11;74.33
58658;BME280;44428;45.630;13.786;2023-03-14T10:43:21;100284.19;;;13.22;73.40
58658;BME280;44428;45.630;13.786;2023-03-14T10:46:13;100281.09;;;13.17;73.32
58658;BME280;44428;45.630;13.786;2023-03-14T10:49:04;100291.16;;;13.23;73.56
58658;BME280;44428;45.630;13.786;2023-03-14T10:51:32;100284.19;;;13.22;73.63
58658;BME280;44428;45.630;13.786;2023-03-14T10:54:13;100296.47;;;13.23;75.29
58658;BME280;44428;45.630;13.786;2023-03-14T10:56:40;100294.03;;;13.32;74.74
58658;BME280;44428;45.630;13.786;2023-03-14T10:59:12;100275.88;;;13.37;74.17
58658;BME280;44428;45.630;13.786;2023-03-14T11:05:11;100282.88;;;13.38;74.26
58658;BME280;44428;45.630;13.786;2023-03-14T11:07:45;100265.53;;;13.34;74.51
58658;BME280;44428;45.630;13.786;2023-03-14T11:10:29;100276.97;;;13.34;74.76
58658;BME280;44428;45.630;13.786;2023-03-14T11:13:17;100277.28;;;13.41;75.53
58658;BME280;44428;45.630;13.786;2023-03-14T11:18:51;100270.00;;;13.43;77.42
58658;BME280;44428;45.630;13.786;2023-03-14T11:24:33;100267.75;;;13.28;78.62
58658;BME280;44428;45.630;13.786;2023-03-14T11:27:16;100269.94;;;13.23;79.11
58658;BME280;44428;45.630;13.786;2023-03-14T11:34:54;100246.25;;;13.32;80.83
58658;BME280;44428;45.630;13.786;2023-03-14T11:37:33;100243.53;;;13.22;81.83
58658;BME280;44428;45.630;13.786;2023-03-14T11:40:33;100231.41;;;13.19;80.59
58658;BME280;44428;45.630;13.786;2023-03-14T11:45:35;100227.69;;;13.01;82.42
58658;BME280;44428;45.630;13.786;2023-03-14T11:50:50;100215.88;;;13.05;83.05
58658;BME280;44428;45.630;13.786;2023-03-14T11:53:29;100207.38;;;13.11;83.43
58658;BME280;44428;45.630;13.786;2023-03-14T11:56:00;100196.75;;;13.11;84.10
58658;BME280;44428;45.630;13.786;2023-03-14T11:58:34;100193.66;;;13.06;83.53
58658;BME280;44428;45.630;13.786;2023-03-14T12:01:08;100183.88;;;13.06;84.10
58658;BME280;44428;45.630;13.786;2023-03-14T12:03:46;100172.44;;;13.06;85.27
58658;BME280;44428;45.630;13.786;2023-03-14T12:09:01;100158.19;;;13.07;83.98
58658;BME280;44428;45.630;13.786;2023-03-14T12:11:43;100166.88;;;13.09;84.68
58658;BME280;44428;45.630;13.786;2023-03-14T12:14:23;100153.72;;;12.98;84.85
58658;BME280;44428;45.630;13.786;2023-03-14T12:16:54;100162.13;;;13.03;84.46
58658;BME280;44428;45.630;13.786;2023-03-14T12:22:01;100149.00;;;13.11;84.24
58658;BME280;44428;45.630;13.786;2023-03-14T12:24:34;100144.53;;;13.12;83.89
58658;BME280;44428;45.630;13.786;2023-03-14T12:27:03;100152.22;;;13.05;84.82
58658;BME280;44428;45.630;13.786;2023-03-14T12:29:31;100147.34;;;13.10;84.40
58658;BME280;44428;45.630;13.786;2023-03-14T12:34:30;100145.94;;;13.16;84.13
58658;BME280;44428;45.630;13.786;2023-03-14T12:37:41;100137.84;;;13.17;84.54
58658;BME280;44428;45.630;13.786;2023-03-14T12:40:19;100139.78;;;13.15;84.99
58658;BME280;44428;45.630;13.786;2023-03-14T12:43:01;100139.22;;;13.12;85.93
58658;BME280;44428;45.630;13.786;2023-03-14T12:45:32;100131.16;;;13.13;86.14
58658;BME280;44428;45.630;13.786;2023-03-14T12:48:19;100141.50;;;13.16;84.42
58658;BME280;44428;45.630;13.786;2023-03-14T12:50:56;100139.22;;;13.21;84.45
58658;BME280;44428;45.630;13.786;2023-03-14T12:53:44;100136.06;;;13.27;86.18
58658;BME280;44428;45.630;13.786;2023-03-14T12:59:30;100114.09;;;13.16;86.07
58658;BME280;44428;45.630;13.786;2023-03-14T13:02:01;100106.28;;;13.14;86.32
58658;BME280;44428;45.630;13.786;2023-03-14T13:04:35;100108.22;;;13.12;86.71
58658;BME280;44428;45.630;13.786;2023-03-14T13:07:03;100090.66;;;13.11;87.86
58658;BME280;44428;45.630;13.786;2023-03-14T13:12:09;100092.59;;;13.19;87.43
58658;BME280;44428;45.630;13.786;2023-03-14T13:14:41;100097.91;;;13.19;87.70
58658;BME280;44428;45.630;13.786;2023-03-14T13:17:16;100101.53;;;13.08;89.56
58658;BME280;44428;45.630;13.786;2023-03-14T13:19:50;100096.50;;;13.15;87.69
58658;BME280;44428;45.630;13.786;2023-03-14T13:22:24;100104.91;;;13.10;89.70
58658;BME280;44428;45.630;13.786;2023-03-14T13:25:00;100102.66;;;13.15;89.17
58658;BME280;44428;45.630;13.786;2023-03-14T13:27:27;100104.91;;;13.10;90.15
58658;BME280;44428;45.630;13.786;2023-03-14T13:29:56;100103.47;;;13.06;90.48
58658;BME280;44428;45.630;13.786;2023-03-14T13:32:27;100104.47;;;13.05;89.99
58658;BME280;44428;45.630;13.786;2023-03-14T13:34:58;100097.75;;;13.01;92.31
58658;BME280;44428;45.630;13.786;2023-03-14T13:37:26;100100.00;;;12.86;93.16
58658;BME280;44428;45.630;13.786;2023-03-14T13:39:54;100087.28;;;12.90;92.86
58658;BME280;44428;45.630;13.786;2023-03-14T13:42:25;100092.44;;;12.81;93.88
58658;BME280;44428;45.630;13.786;2023-03-14T13:44:53;100094.53;;;12.88;92.12